Time;durP1;ratioP1;P1;durP2;ratioP2;P2;SDS_P1;SDS_P2;PMS_P1;PMS_P2;Temp;Humidity;BMP_temperature;BMP_pressure;BME280_temperature;BME280_humidity;BME280_pressure;Samples;Min_cycle;Max_cycle;Signal;HPM_P1;HPM_P2
2023/03/03 00:02:21;;;;;;;;;;;;;;;20.36;44.45;101835.50;5008540;28;4033;-71
2023/03/03 00:04:48;;;;;;;;;;;;;;;20.36;44.68;101829.75;5013739;28;4421;-70
2023/03/03 00:07:20;;;;;;;;;;;;;;;20.37;44.48;101832.00;5004278;28;4346;-69
2023/03/03 00:09:46;;;;;;;;;;;;;;;20.39;44.67;101851.53;5013911;28;3942;-71
2023/03/03 00:12:31;;;;;;;;;;;;;;;20.39;44.65;101843.63;5013341;28;4171;-70
2023/03/03 00:14:57;;;;;;;;;;;;;;;20.39;44.99;101846.50;5015450;28;4157;-70
2023/03/03 00:17:25;;;;;;;;;;;;;;;20.39;44.72;101845.75;5008457;28;4230;-70
2023/03/03 00:19:51;;;;;;;;;;;;;;;20.39;44.87;101855.13;5013928;28;4732;-70
2023/03/03 00:22:24;;;;;;;;;;;;;;;20.37;45.22;101855.00;4999241;28;4045;-70
2023/03/03 00:24:50;;;;;;;;;;;;;;;20.38;45.21;101853.63;5005803;28;4214;-70
2023/03/03 00:27:24;;;;;;;;;;;;;;;20.37;44.94;101857.88;5013872;28;4105;-70
2023/03/03 00:29:52;;;;;;;;;;;;;;;20.35;44.94;101852.00;5007902;28;4103;-70
2023/03/03 00:32:24;;;;;;;;;;;;;;;20.35;44.82;101834.75;5014595;28;4533;-70
2023/03/03 00:34:51;;;;;;;;;;;;;;;20.35;44.87;101823.25;5015270;28;4090;-70
2023/03/03 00:37:28;;;;;;;;;;;;;;;20.35;44.98;101823.25;5044876;28;6221;-70
2023/03/03 00:40:15;;;;;;;;;;;;;;;20.36;45.17;101830.47;5018125;28;4101;-70
2023/03/03 00:42:43;;;;;;;;;;;;;;;20.38;45.27;101833.50;5022858;28;7514;-69
2023/03/03 00:45:17;;;;;;;;;;;;;;;20.38;45.08;101836.34;5016957;28;5338;-69
2023/03/03 00:47:43;;;;;;;;;;;;;;;20.37;45.30;101834.88;5017872;28;4008;-70
2023/03/03 00:50:09;;;;;;;;;;;;;;;20.38;45.16;101821.97;5021293;28;4157;-69
2023/03/03 00:52:37;;;;;;;;;;;;;;;20.37;45.31;101814.75;5015832;28;4199;-70
2023/03/03 00:55:03;;;;;;;;;;;;;;;20.36;45.26;101827.59;5048560;28;4317;-70
2023/03/03 00:57:30;;;;;;;;;;;;;;;20.36;45.14;101810.34;5018975;28;4017;-70
2023/03/03 00:59:56;;;;;;;;;;;;;;;20.35;45.29;101828.25;5018218;28;4270;-69
2023/03/03 01:02:23;;;;;;;;;;;;;;;20.35;45.38;101828.25;5028688;28;4499;-70
2023/03/03 01:04:50;;;;;;;;;;;;;;;20.34;45.25;101812.34;5021327;28;4082;-70
2023/03/03 01:07:17;;;;;;;;;;;;;;;20.34;45.11;101821.75;5014276;28;4203;-70
2023/03/03 01:09:43;;;;;;;;;;;;;;;20.33;45.04;101808.72;5018764;28;4110;-69
2023/03/03 01:12:10;;;;;;;;;;;;;;;20.33;45.03;101819.50;5014592;28;4082;-70
2023/03/03 01:14:36;;;;;;;;;;;;;;;20.34;45.27;101816.00;5018120;28;4239;-71
2023/03/03 01:17:03;;;;;;;;;;;;;;;20.34;45.10;101812.34;5035698;28;4069;-70
2023/03/03 01:19:29;;;;;;;;;;;;;;;20.34;45.25;101816.00;5018925;28;5289;-70
2023/03/03 01:21:56;;;;;;;;;;;;;;;20.35;45.12;101811.72;5015291;28;4141;-69
2023/03/03 01:24:22;;;;;;;;;;;;;;;20.37;45.10;101811.88;5019619;28;4355;-70
2023/03/03 01:26:49;;;;;;;;;;;;;;;20.32;45.46;101821.63;5018270;28;4110;-70
2023/03/03 01:29:15;;;;;;;;;;;;;;;20.28;45.87;101827.13;5020871;28;3981;-70
2023/03/03 01:31:41;;;;;;;;;;;;;;;20.27;45.83;101805.47;5030485;28;5162;-70
2023/03/03 01:34:08;;;;;;;;;;;;;;;20.25;45.59;101803.22;5016599;28;4285;-71
2023/03/03 01:36:35;;;;;;;;;;;;;;;20.26;45.46;101798.22;5016291;28;4035;-71
2023/03/03 01:39:02;;;;;;;;;;;;;;;20.26;45.67;101801.84;5018821;28;4132;-70
2023/03/03 01:41:31;;;;;;;;;;;;;;;20.24;45.67;101792.34;5016117;28;3998;-70
2023/03/03 01:43:57;;;;;;;;;;;;;;;20.25;45.62;101791.72;5007735;28;4256;-70
2023/03/03 01:46:23;;;;;;;;;;;;;;;20.25;45.61;101788.09;5047962;28;4078;-70
2023/03/03 01:48:50;;;;;;;;;;;;;;;20.24;45.44;101783.72;5012077;28;4026;-70
2023/03/03 01:51:21;;;;;;;;;;;;;;;20.24;45.42;101766.47;5025851;28;5133;-70
2023/03/03 01:53:51;;;;;;;;;;;;;;;20.25;45.59;101776.59;5018010;28;4112;-69
2023/03/03 01:56:18;;;;;;;;;;;;;;;20.26;45.58;101778.09;5013281;28;4226;-70
2023/03/03 01:58:45;;;;;;;;;;;;;;;20.27;45.66;101770.94;5023965;28;4321;-69
2023/03/03 02:01:13;;;;;;;;;;;;;;;20.26;45.68;101769.47;5009918;28;4164;-70
2023/03/03 02:03:39;;;;;;;;;;;;;;;20.25;45.53;101780.22;5012183;28;5314;-70
2023/03/03 02:06:07;;;;;;;;;;;;;;;20.26;45.56;101769.47;5014061;28;4157;-69
2023/03/03 02:08:49;;;;;;;;;;;;;;;20.25;45.54;101762.22;5013647;28;4221;-69
2023/03/03 02:11:15;;;;;;;;;;;;;;;20.25;45.70;101779.47;5008635;28;4145;-69
2023/03/03 02:13:42;;;;;;;;;;;;;;;20.25;45.88;101779.47;5011743;28;4315;-69
2023/03/03 02:16:08;;;;;;;;;;;;;;;20.26;45.52;101781.72;5007185;28;4188;-70
2023/03/03 02:18:34;;;;;;;;;;;;;;;20.24;45.68;101789.47;5014684;28;4015;-69
2023/03/03 02:21:03;;;;;;;;;;;;;;;20.24;45.46;101786.59;5012537;28;4129;-69
2023/03/03 02:23:34;;;;;;;;;;;;;;;20.23;45.46;101793.72;5006526;28;4061;-70
2023/03/03 02:26:00;;;;;;;;;;;;;;;20.24;45.58;101789.47;5012001;28;5087;-70
2023/03/03 02:28:29;;;;;;;;;;;;;;;20.24;45.51;101783.72;5023018;28;4105;-70
2023/03/03 02:30:56;;;;;;;;;;;;;;;20.25;45.62;101796.75;5004876;28;4002;-70
2023/03/03 02:33:23;;;;;;;;;;;;;;;20.26;45.83;101798.22;5004800;28;4180;-70
2023/03/03 02:35:49;;;;;;;;;;;;;;;20.25;45.57;101785.22;5010033;28;4184;-69
2023/03/03 02:38:32;;;;;;;;;;;;;;;20.26;45.71;101798.22;5013581;28;4077;-69
2023/03/03 02:41:14;;;;;;;;;;;;;;;20.26;45.72;101793.22;5017561;28;3985;-69
2023/03/03 02:43:45;;;;;;;;;;;;;;;20.26;45.62;101783.84;5016191;28;4142;-69
2023/03/03 02:46:12;;;;;;;;;;;;;;;20.28;45.90;101789.72;4996992;28;3996;-69
2023/03/03 02:48:38;;;;;;;;;;;;;;;20.30;45.58;101795.59;5017929;28;4013;-69
2023/03/03 02:51:05;;;;;;;;;;;;;;;20.30;45.74;101786.97;5017729;28;4000;-69
2023/03/03 02:53:31;;;;;;;;;;;;;;;20.29;45.57;101806.38;5030915;28;4122;-69
2023/03/03 02:55:57;;;;;;;;;;;;;;;20.28;45.45;101796.22;5047847;28;4233;-69
2023/03/03 02:58:24;;;;;;;;;;;;;;;20.28;45.50;101792.59;5011074;28;5114;-69
2023/03/03 03:00:51;;;;;;;;;;;;;;;20.29;45.57;101792.00;5014735;28;4087;-69
2023/03/03 03:03:21;;;;;;;;;;;;;;;20.25;45.88;101796.75;5029773;28;4184;-69
2023/03/03 03:05:48;;;;;;;;;;;;;;;20.28;45.94;101795.47;5016235;28;4047;-69
2023/03/03 03:08:17;;;;;;;;;;;;;;;20.30;45.59;101786.97;5026104;28;4272;-69
2023/03/03 03:10:44;;;;;;;;;;;;;;;20.30;45.72;101792.72;5041946;28;3964;-69
2023/03/03 03:13:10;;;;;;;;;;;;;;;20.32;45.60;101795.72;5028151;28;4749;-70
2023/03/03 03:15:37;;;;;;;;;;;;;;;20.30;45.62;101796.34;5008729;28;3972;-69
2023/03/03 03:18:04;;;;;;;;;;;;;;;20.32;45.97;101800.72;5012981;28;4203;-69
2023/03/03 03:20:31;;;;;;;;;;;;;;;20.30;45.85;101799.22;5019219;28;4026;-69
2023/03/03 03:22:57;;;;;;;;;;;;;;;20.28;45.66;101799.09;5044833;28;4517;-68
2023/03/03 03:25:23;;;;;;;;;;;;;;;20.28;45.49;101816.34;5008211;28;4054;-69
2023/03/03 03:27:50;;;;;;;;;;;;;;;20.27;45.43;101812.00;5017081;28;3984;-69
2023/03/03 03:30:19;;;;;;;;;;;;;;;20.28;45.57;101818.50;5013605;28;6195;-69
2023/03/03 03:32:46;;;;;;;;;;;;;;;20.27;45.49;101816.97;5014935;28;4008;-69
2023/03/03 03:35:12;;;;;;;;;;;;;;;20.26;45.50;101810.47;5008459;28;4103;-69
2023/03/03 03:37:39;;;;;;;;;;;;;;;20.29;45.42;101814.22;5011337;28;4072;-69
2023/03/03 03:40:05;;;;;;;;;;;;;;;20.30;45.78;101818.63;5012526;28;4196;-69
2023/03/03 03:42:32;;;;;;;;;;;;;;;20.29;45.59;101820.75;5012605;28;4475;-69
2023/03/03 03:44:58;;;;;;;;;;;;;;;20.32;45.67;101826.59;5012626;28;4260;-70
2023/03/03 03:47:25;;;;;;;;;;;;;;;20.31;45.48;101817.22;5013942;28;4138;-69
2023/03/03 03:49:51;;;;;;;;;;;;;;;20.31;45.75;101811.47;5012016;28;3998;-69
2023/03/03 03:52:18;;;;;;;;;;;;;;;20.33;45.68;101807.97;5012153;28;5226;-70
2023/03/03 03:54:45;;;;;;;;;;;;;;;20.33;45.86;101802.97;5034362;28;4229;-69
2023/03/03 03:57:11;;;;;;;;;;;;;;;20.33;45.80;101805.84;5008947;28;4037;-69
2023/03/03 03:59:38;;;;;;;;;;;;;;;20.34;45.63;101798.75;5026181;28;4042;-70
2023/03/03 04:02:04;;;;;;;;;;;;;;;20.35;45.97;101805.97;5029062;28;4140;-70
2023/03/03 04:04:31;;;;;;;;;;;;;;;20.35;45.79;101791.59;5008005;28;4193;-70
2023/03/03 04:06:58;;;;;;;;;;;;;;;20.34;45.77;101786.47;5028307;28;4201;-69
2023/03/03 04:09:24;;;;;;;;;;;;;;;20.34;45.77;101792.97;5012809;28;4164;-68
2023/03/03 04:11:51;;;;;;;;;;;;;;;20.34;45.89;101783.59;5027962;28;4125;-69
2023/03/03 04:14:18;;;;;;;;;;;;;;;20.33;45.76;101785.72;5018077;28;4126;-69
2023/03/03 04:16:44;;;;;;;;;;;;;;;20.33;46.02;101779.97;5052714;28;5278;-70
2023/03/03 04:19:11;;;;;;;;;;;;;;;20.32;45.79;101787.09;5034178;28;3983;-70
2023/03/03 04:21:40;;;;;;;;;;;;;;;20.32;45.85;101784.22;5015002;28;6521;-70
2023/03/03 04:24:06;;;;;;;;;;;;;;;20.33;45.80;101782.09;5019346;28;4142;-70
2023/03/03 04:26:33;;;;;;;;;;;;;;;20.32;45.91;101784.22;5034716;28;5490;-70
2023/03/03 04:29:01;;;;;;;;;;;;;;;20.32;45.66;101778.47;5031415;28;4187;-69
2023/03/03 04:31:28;;;;;;;;;;;;;;;20.32;46.00;101778.47;5020469;28;4089;-69
2023/03/03 04:33:54;;;;;;;;;;;;;;;20.31;45.92;101776.97;5032447;28;4171;-69
2023/03/03 04:36:22;;;;;;;;;;;;;;;20.31;45.76;101779.84;5013003;28;5205;-69
2023/03/03 04:38:48;;;;;;;;;;;;;;;20.30;45.60;101775.47;5014308;28;4223;-70
2023/03/03 04:41:14;;;;;;;;;;;;;;;20.28;45.66;101767.47;5016672;28;4188;-70
2023/03/03 04:43:41;;;;;;;;;;;;;;;20.28;45.68;101767.47;5007721;28;5268;-69
2023/03/03 04:46:10;;;;;;;;;;;;;;;20.29;45.66;101774.72;5032998;28;4154;-70
2023/03/03 04:48:37;;;;;;;;;;;;;;;20.30;45.86;101775.47;5047683;28;4231;-69
2023/03/03 04:51:03;;;;;;;;;;;;;;;20.33;45.50;101776.34;5014126;28;4213;-69
2023/03/03 04:53:32;;;;;;;;;;;;;;;20.31;45.49;101776.97;5046446;28;4115;-69
2023/03/03 04:55:58;;;;;;;;;;;;;;;20.33;45.48;101776.34;5044234;28;5361;-69
2023/03/03 04:58:25;;;;;;;;;;;;;;;20.32;45.59;101789.97;5018434;28;4097;-69
2023/03/03 05:00:53;;;;;;;;;;;;;;;20.33;45.57;101791.47;5012696;28;4222;-70
2023/03/03 05:03:20;;;;;;;;;;;;;;;20.34;45.57;101787.22;5014112;28;4060;-69
2023/03/03 05:05:46;;;;;;;;;;;;;;;20.35;45.64;101782.97;5050160;28;3953;-69
2023/03/03 05:08:12;;;;;;;;;;;;;;;20.35;45.62;101773.59;5015379;28;4158;-69
2023/03/03 05:10:39;;;;;;;;;;;;;;;20.35;45.80;101770.72;5018031;28;5020;-69
2023/03/03 05:13:05;;;;;;;;;;;;;;;20.34;45.58;101769.97;5016249;28;4392;-69
2023/03/03 05:15:32;;;;;;;;;;;;;;;20.34;45.63;101763.44;5020768;28;4105;-69
2023/03/03 05:17:58;;;;;;;;;;;;;;;20.34;45.65;101764.22;5018023;28;4217;-69
2023/03/03 05:20:25;;;;;;;;;;;;;;;20.33;45.56;101770.59;5019413;28;5425;-69
2023/03/03 05:22:51;;;;;;;;;;;;;;;20.31;45.79;101768.34;5014545;28;4161;-70
2023/03/03 05:25:17;;;;;;;;;;;;;;;20.31;45.83;101768.34;5012395;28;4375;-70
2023/03/03 05:27:43;;;;;;;;;;;;;;;20.32;45.65;101766.19;5014850;28;4152;-69
2023/03/03 05:30:10;;;;;;;;;;;;;;;20.32;45.68;101766.19;5017406;28;4118;-69
2023/03/03 05:32:37;;;;;;;;;;;;;;;20.32;45.58;101766.97;5011811;28;4201;-70
2023/03/03 05:35:03;;;;;;;;;;;;;;;20.32;45.69;101764.09;5016105;28;5476;-70
2023/03/03 05:37:30;;;;;;;;;;;;;;;20.30;45.61;101764.72;5015099;28;4142;-70
2023/03/03 05:39:56;;;;;;;;;;;;;;;20.31;45.58;101771.22;5014616;28;4234;-70
2023/03/03 05:42:22;;;;;;;;;;;;;;;20.30;45.47;101778.34;5016230;28;5383;-69
2023/03/03 05:44:49;;;;;;;;;;;;;;;20.30;45.48;101781.97;5015631;28;5353;-70
2023/03/03 05:47:15;;;;;;;;;;;;;;;20.29;45.58;101785.47;5013151;28;4032;-69
2023/03/03 05:49:41;;;;;;;;;;;;;;;20.29;45.46;101796.97;5014686;28;4486;-69
2023/03/03 05:52:08;;;;;;;;;;;;;;;20.29;45.33;101791.22;5016568;28;4116;-72
2023/03/03 05:54:34;;;;;;;;;;;;;;;20.30;45.48;101793.47;5018649;28;4301;-69
2023/03/03 05:57:00;;;;;;;;;;;;;;;20.31;45.56;101791.34;5016554;28;4161;-69
2023/03/03 05:59:27;;;;;;;;;;;;;;;20.32;45.36;101797.84;5016482;28;5081;-67
2023/03/03 06:01:53;;;;;;;;;;;;;;;20.32;45.52;101798.59;5014580;28;4094;-67
2023/03/03 06:04:19;;;;;;;;;;;;;;;20.30;45.51;101799.22;5014883;28;5213;-67
2023/03/03 06:06:46;;;;;;;;;;;;;;;20.30;45.46;101795.59;5016916;28;4151;-68
2023/03/03 06:09:12;;;;;;;;;;;;;;;20.32;45.51;101804.38;5017065;28;4139;-70
2023/03/03 06:11:39;;;;;;;;;;;;;;;20.30;45.45;101802.09;5012970;28;4093;-69
2023/03/03 06:14:05;;;;;;;;;;;;;;;20.29;45.79;101800.63;5015308;28;4098;-69
2023/03/03 06:16:31;;;;;;;;;;;;;;;20.31;45.59;101799.97;5016379;28;4118;-70
2023/03/03 06:18:58;;;;;;;;;;;;;;;20.33;45.88;101797.22;5012781;28;4024;-79
2023/03/03 06:21:24;;;;;;;;;;;;;;;19.98;45.60;101800.84;5005845;28;4646;-65
2023/03/03 06:23:50;;;;;;;;;;;;;;;20.24;45.82;101809.59;5008545;28;4181;-65
2023/03/03 06:26:17;;;;;;;;;;;;;;;20.38;45.38;101816.22;5011768;28;4179;-65
2023/03/03 06:28:43;;;;;;;;;;;;;;;20.50;45.49;101810.47;5012083;28;4228;-64
2023/03/03 06:31:10;;;;;;;;;;;;;;;20.53;45.63;101825.75;5007766;28;6395;-63
2023/03/03 06:33:37;;;;;;;;;;;;;;;20.57;46.21;101831.75;5005356;28;4181;-63
2023/03/03 06:36:03;;;;;;;;;;;;;;;20.60;46.21;101821.88;5010335;28;4062;-62
2023/03/03 06:38:31;;;;;;;;;;;;;;;20.63;45.95;101829.25;4995629;28;4144;-61
2023/03/03 06:41:00;;;;;;;;;;;;;;;20.64;46.16;101827.91;5013928;28;5317;-62
2023/03/03 06:43:27;;;;;;;;;;;;;;;20.64;45.91;101817.13;5030148;28;3957;-63
2023/03/03 06:45:53;;;;;;;;;;;;;;;20.62;45.96;101824.88;5013488;28;5301;-63
2023/03/03 06:48:20;;;;;;;;;;;;;;;20.60;46.64;101830.53;5017801;28;5220;-63
2023/03/03 06:50:46;;;;;;;;;;;;;;;20.64;46.72;101827.91;5016132;28;5347;-63
2023/03/03 06:53:13;;;;;;;;;;;;;;;20.86;46.65;101826.34;5015291;28;4133;-63
2023/03/03 06:55:43;;;;;;;;;;;;;;;21.00;45.99;101825.69;5018625;28;4052;-63
2023/03/03 06:58:11;;;;;;;;;;;;;;;21.09;45.96;101822.66;5016103;28;5403;-63
2023/03/03 07:00:37;;;;;;;;;;;;;;;21.08;45.23;101829.06;5012757;28;4631;-63
2023/03/03 07:03:06;;;;;;;;;;;;;;;20.80;45.49;101839.63;5016142;28;4113;-63
2023/03/03 07:05:33;;;;;;;;;;;;;;;20.86;46.13;101834.97;5014559;28;4202;-62
2023/03/03 07:07:59;;;;;;;;;;;;;;;20.93;45.84;101850.50;5015119;28;4114;-62
2023/03/03 07:10:26;;;;;;;;;;;;;;;21.09;45.16;101851.44;5017410;28;5272;-63
2023/03/03 07:12:53;;;;;;;;;;;;;;;21.14;45.47;101855.31;5016568;28;4190;-62
2023/03/03 07:15:23;;;;;;;;;;;;;;;20.97;44.33;101861.50;5044913;28;4207;-62
2023/03/03 07:17:51;;;;;;;;;;;;;;;20.11;41.88;101864.84;5016847;28;5261;-62
2023/03/03 07:20:19;;;;;;;;;;;;;;;19.85;41.67;101876.91;5013172;28;4208;-62
2023/03/03 07:22:45;;;;;;;;;;;;;;;20.08;41.76;101869.72;5014202;28;4209;-63
2023/03/03 07:25:25;;;;;;;;;;;;;;;20.35;41.73;101865.66;5010769;28;5366;-63
2023/03/03 07:27:52;;;;;;;;;;;;;;;20.46;42.14;101868.53;5011786;28;4060;-66
2023/03/03 07:30:25;;;;;;;;;;;;;;;20.70;42.47;101849.13;5010871;28;4371;-60
2023/03/03 07:32:53;;;;;;;;;;;;;;;20.92;42.53;101855.50;5008523;28;4185;-61
2023/03/03 07:35:38;;;;;;;;;;;;;;;20.95;42.25;101858.50;5003043;28;4151;-61
2023/03/03 07:38:34;;;;;;;;;;;;;;;20.97;42.44;101861.50;5013405;28;4171;-61
2023/03/03 07:41:01;;;;;;;;;;;;;;;21.06;42.63;101864.22;5017177;28;4291;-59
2023/03/03 07:43:29;;;;;;;;;;;;;;;21.10;42.52;101870.25;5013228;28;4123;-61
2023/03/03 07:46:02;;;;;;;;;;;;;;;20.91;42.93;101864.75;5009665;28;4086;-61
2023/03/03 07:48:29;;;;;;;;;;;;;;;20.91;43.04;101877.03;5005988;28;4202;-66
2023/03/03 07:50:57;;;;;;;;;;;;;;;20.90;43.17;101880.53;5013097;28;5418;-64
2023/03/03 07:53:25;;;;;;;;;;;;;;;20.95;43.49;101881.53;5012108;28;4976;-62
2023/03/03 07:55:52;;;;;;;;;;;;;;;20.92;43.43;101883.53;5017216;28;4224;-61
2023/03/03 07:58:18;;;;;;;;;;;;;;;20.89;43.63;101881.91;5012728;28;5268;-61
2023/03/03 08:00:44;;;;;;;;;;;;;;;20.86;43.54;101889.69;5014973;28;4298;-61
2023/03/03 08:03:11;;;;;;;;;;;;;;;20.84;43.92;101886.66;5014336;28;4096;-60
2023/03/03 08:05:45;;;;;;;;;;;;;;;20.84;44.00;101883.03;5012167;28;5255;-61
2023/03/03 08:08:12;;;;;;;;;;;;;;;20.86;44.13;101892.56;5008295;28;4979;-63
2023/03/03 08:10:54;;;;;;;;;;;;;;;20.84;44.08;101886.66;5013877;28;4309;-61
2023/03/03 08:13:21;;;;;;;;;;;;;;;20.82;44.18;101886.56;5012676;28;4772;-61
2023/03/03 08:15:58;;;;;;;;;;;;;;;20.84;44.01;101886.66;5019549;28;4573;-63
2023/03/03 08:18:28;;;;;;;;;;;;;;;21.00;44.28;101889.78;5042604;28;4842;-61
2023/03/03 08:20:58;;;;;;;;;;;;;;;21.04;44.15;101889.28;5016217;28;4223;-64
2023/03/03 08:23:25;;;;;;;;;;;;;;;21.30;44.06;101869.94;5013851;28;4157;-61
2023/03/03 08:25:51;;;;;;;;;;;;;;;21.27;44.04;101871.94;5014245;28;4331;-63
2023/03/03 08:28:18;;;;;;;;;;;;;;;21.40;43.98;101887.06;5016426;28;5264;-62
2023/03/03 08:30:45;;;;;;;;;;;;;;;21.37;43.94;101874.66;5014530;28;4426;-62
2023/03/03 08:33:11;;;;;;;;;;;;;;;21.33;43.98;101872.31;5009661;28;4380;-62
2023/03/03 08:35:37;;;;;;;;;;;;;;;21.33;44.20;101877.31;5016369;28;5058;-62
2023/03/03 08:38:04;;;;;;;;;;;;;;;21.22;44.24;101881.72;5018778;28;4096;-64
2023/03/03 08:40:30;;;;;;;;;;;;;;;21.01;43.80;101876.16;5007621;28;4145;-62
2023/03/03 08:42:57;;;;;;;;;;;;;;;20.88;44.08;101878.28;5011726;28;4514;-62
2023/03/03 08:45:24;;;;;;;;;;;;;;;20.86;44.49;101880.28;5013904;28;4078;-64
2023/03/03 08:47:50;;;;;;;;;;;;;;;20.84;44.34;101883.78;5016593;28;4180;-63
2023/03/03 08:50:16;;;;;;;;;;;;;;;20.88;44.47;101880.41;5009500;28;4724;-63
2023/03/03 08:52:43;;;;;;;;;;;;;;;20.83;44.52;101885.19;5005865;28;5212;-64
2023/03/03 08:55:09;;;;;;;;;;;;;;;20.75;44.41;101889.69;5004722;28;6272;-64
2023/03/03 08:57:36;;;;;;;;;;;;;;;20.77;44.10;101884.81;5014198;28;4170;-64
2023/03/03 09:00:02;;;;;;;;;;;;;;;20.75;44.30;101887.56;5014823;28;4194;-64
2023/03/03 09:02:29;;;;;;;;;;;;;;;20.76;44.49;101877.56;5004242;28;4501;-63
2023/03/03 09:04:55;;;;;;;;;;;;;;;20.81;44.42;101875.69;5015767;28;5210;-64
2023/03/03 09:07:21;;;;;;;;;;;;;;;20.80;44.61;101877.81;5008917;28;4194;-63
2023/03/03 09:09:48;;;;;;;;;;;;;;;20.79;44.47;101875.56;5014387;28;4155;-63
2023/03/03 09:12:16;;;;;;;;;;;;;;;20.79;44.47;101879.16;5013973;28;4160;-64
2023/03/03 09:14:42;;;;;;;;;;;;;;;20.76;44.73;101877.56;5012552;28;4455;-63
2023/03/03 09:17:17;;;;;;;;;;;;;;;20.75;44.46;101887.56;5013916;28;4080;-64
2023/03/03 09:19:44;;;;;;;;;;;;;;;20.73;44.63;101881.69;5018170;28;4109;-63
2023/03/03 09:22:15;;;;;;;;;;;;;;;20.73;44.70;101878.03;5018554;28;4139;-63
2023/03/03 09:24:41;;;;;;;;;;;;;;;20.71;44.84;101876.56;5013054;28;4544;-64
2023/03/03 09:27:26;;;;;;;;;;;;;;;20.71;44.68;101875.81;5012098;28;4217;-64
2023/03/03 09:29:52;;;;;;;;;;;;;;;20.71;44.64;101881.56;5006330;28;5599;-64
2023/03/03 09:32:18;;;;;;;;;;;;;;;20.71;44.55;101882.31;5014899;28;4313;-64
2023/03/03 09:34:45;;;;;;;;;;;;;;;20.71;44.72;101882.31;5013246;28;4259;-64
2023/03/03 09:37:14;;;;;;;;;;;;;;;20.72;44.57;101871.53;5018111;28;4062;-64
2023/03/03 09:39:47;;;;;;;;;;;;;;;20.73;44.48;101873.06;5050092;28;4313;-64
2023/03/03 09:42:32;;;;;;;;;;;;;;;20.71;44.70;101875.81;5016087;28;4153;-65
2023/03/03 09:45:16;;;;;;;;;;;;;;;20.71;44.69;101878.69;5017479;28;4199;-64
2023/03/03 09:47:55;;;;;;;;;;;;;;;20.69;44.67;101878.56;5016676;28;4117;-64
2023/03/03 09:50:29;;;;;;;;;;;;;;;19.28;40.54;101878.16;5009328;28;4004;-63
2023/03/03 09:53:14;;;;;;;;;;;;;;;18.99;41.85;101879.84;5004843;28;4015;-67
2023/03/03 09:55:46;;;;;;;;;;;;;;;19.82;41.43;101898.28;5012278;28;4128;-65
2023/03/03 09:58:25;;;;;;;;;;;;;;;20.20;42.32;101884.13;5017795;28;4138;-65
2023/03/03 10:01:10;;;;;;;;;;;;;;;20.39;41.92;101875.28;5013678;28;4147;-66
2023/03/03 10:03:50;;;;;;;;;;;;;;;20.49;41.63;101878.78;5014392;28;4274;-64
2023/03/03 10:06:19;;;;;;;;;;;;;;;20.58;42.19;101882.19;5015553;28;4192;-65
2023/03/03 10:08:52;;;;;;;;;;;;;;;20.64;43.38;101871.81;5012369;28;4057;-68
2023/03/03 10:11:29;;;;;;;;;;;;;;;20.73;43.44;101872.28;5004028;28;4727;-67
2023/03/03 10:13:59;;;;;;;;;;;;;;;20.80;44.10;101888.56;5010599;28;4178;-66
2023/03/03 10:16:47;;;;;;;;;;;;;;;20.84;43.67;101888.81;5038174;28;4922;-67
2023/03/03 10:19:18;;;;;;;;;;;;;;;20.87;43.63;101888.31;5012999;28;4239;-69
2023/03/03 10:21:49;;;;;;;;;;;;;;;20.94;43.55;101880.78;5008645;28;3954;-64
2023/03/03 10:24:28;;;;;;;;;;;;;;;20.91;43.56;101876.28;5011413;28;3903;-66
2023/03/03 10:27:13;;;;;;;;;;;;;;;20.87;43.73;101879.69;5010150;28;3924;-65
2023/03/03 10:29:45;;;;;;;;;;;;;;;20.96;43.57;101865.75;5013275;28;3900;-67
2023/03/03 10:32:31;;;;;;;;;;;;;;;21.01;43.35;101865.38;5011523;28;4511;-69
2023/03/03 10:35:04;;;;;;;;;;;;;;;20.89;43.81;101874.03;5011246;28;6275;-62
2023/03/03 10:37:49;;;;;;;;;;;;;;;21.13;44.60;101862.47;5007323;28;4479;-70
2023/03/03 10:40:19;;;;;;;;;;;;;;;21.21;43.95;101862.97;5013945;28;4144;-69
2023/03/03 10:42:51;;;;;;;;;;;;;;;21.23;43.91;101880.34;5010355;28;4219;-70
2023/03/03 10:45:35;;;;;;;;;;;;;;;21.22;43.93;101870.22;5015862;28;4153;-70
2023/03/03 10:48:08;;;;;;;;;;;;;;;21.11;43.55;101876.75;5015854;28;4182;-67
2023/03/03 10:50:54;;;;;;;;;;;;;;;20.95;43.81;101878.66;5013608;28;5195;-69
2023/03/03 10:53:22;;;;;;;;;;;;;;;20.90;43.96;101872.66;5010354;28;4143;-68
2023/03/03 10:56:08;;;;;;;;;;;;;;;20.94;44.11;101869.28;5005561;28;4184;-68
2023/03/03 10:58:44;;;;;;;;;;;;;;;21.01;43.97;101874.03;5003279;28;7542;-67
2023/03/03 11:01:21;;;;;;;;;;;;;;;20.99;44.02;101871.00;5007440;28;4076;-66
2023/03/03 11:03:55;;;;;;;;;;;;;;;21.01;43.93;101874.03;4988292;28;4227;-68
2023/03/03 11:06:40;;;;;;;;;;;;;;;21.12;43.75;101881.13;4955158;28;6812;-68
2023/03/03 11:09:24;;;;;;;;;;;;;;;21.13;44.29;101880.50;4990069;28;4093;-70
2023/03/03 11:11:54;;;;;;;;;;;;;;;21.12;44.32;101878.25;4991637;28;6834;-70
2023/03/03 11:14:22;;;;;;;;;;;;;;;21.17;44.91;101873.50;5036952;28;6941;-69
2023/03/03 11:17:08;;;;;;;;;;;;;;;21.17;45.64;101874.22;5007904;28;3887;-67
2023/03/03 11:19:43;;;;;;;;;;;;;;;21.18;45.21;101872.84;4997841;28;6756;-71
2023/03/03 11:22:12;;;;;;;;;;;;;;;21.23;45.47;101870.94;5004277;28;4059;-69
2023/03/03 11:24:45;;;;;;;;;;;;;;;21.18;45.40;101875.72;5039075;28;4131;-67
2023/03/03 11:27:20;;;;;;;;;;;;;;;21.23;45.51;101870.94;4997323;28;5057;-72
2023/03/03 11:29:49;;;;;;;;;;;;;;;21.26;45.54;101881.22;5003084;28;4723;-70
2023/03/03 11:32:18;;;;;;;;;;;;;;;21.30;45.68;101859.19;5006279;28;4303;-69
2023/03/03 11:35:03;;;;;;;;;;;;;;;21.20;45.50;101861.44;5005444;28;4613;-75
2023/03/03 11:37:35;;;;;;;;;;;;;;;21.32;45.85;101861.41;5009487;28;5702;-73
2023/03/03 11:40:03;;;;;;;;;;;;;;;21.33;45.74;101862.91;5004993;28;4113;-75
2023/03/03 11:42:35;;;;;;;;;;;;;;;21.40;45.80;101861.16;5040379;28;4400;-70
2023/03/03 11:45:02;;;;;;;;;;;;;;;21.37;45.45;101859.50;5039152;28;4052;-71
2023/03/03 11:47:33;;;;;;;;;;;;;;;21.40;45.25;101855.38;4976601;28;4141;-69
2023/03/03 11:50:01;;;;;;;;;;;;;;;21.41;45.55;101863.41;4977558;28;4529;-70
2023/03/03 11:52:39;;;;;;;;;;;;;;;21.40;45.45;101861.16;4968025;28;5105;-70
2023/03/03 11:55:11;;;;;;;;;;;;;;;21.38;45.68;101866.78;4948208;28;4788;-71
2023/03/03 11:57:44;;;;;;;;;;;;;;;21.41;45.65;101865.53;4930157;28;4154;-69
2023/03/03 12:00:30;;;;;;;;;;;;;;;20.89;44.87;101862.53;4887164;28;4125;-67
2023/03/03 12:03:15;;;;;;;;;;;;;;;20.85;41.56;101853.63;4860059;28;5197;-70
2023/03/03 12:05:51;;;;;;;;;;;;;;;21.07;42.39;101844.81;4865554;28;4151;-76
2023/03/03 12:08:20;;;;;;;;;;;;;;;21.20;43.22;101837.66;4833930;28;5817;-72
2023/03/03 12:10:49;;;;;;;;;;;;;;;21.52;43.81;101830.91;4861488;28;4156;-70
2023/03/03 12:13:21;;;;;;;;;;;;;;;21.53;44.04;101834.53;4845940;28;5789;-68
2023/03/03 12:15:48;;;;;;;;;;;;;;;21.57;43.98;101829.00;4824157;28;9355;-70
2023/03/03 12:18:25;;;;;;;;;;;;;;;21.61;44.09;101829.25;4853580;28;5922;-68
2023/03/03 12:20:58;;;;;;;;;;;;;;;21.57;44.23;101823.25;4849456;28;4031;-69
2023/03/03 12:23:34;;;;;;;;;;;;;;;21.66;44.65;101822.31;4851857;28;4104;-69
2023/03/03 12:26:19;;;;;;;;;;;;;;;21.72;44.86;101816.16;4839147;28;4504;-69
2023/03/03 12:28:49;;;;;;;;;;;;;;;21.68;44.64;101810.91;4839824;28;6239;-69
2023/03/03 12:31:24;;;;;;;;;;;;;;;21.74;44.31;101811.25;4996414;28;4131;-71
2023/03/03 12:33:55;;;;;;;;;;;;;;;21.73;45.12;101801.09;4985029;28;4852;-69
2023/03/03 12:36:35;;;;;;;;;;;;;;;21.62;45.38;101801.91;4992213;28;5117;-70
2023/03/03 12:39:05;;;;;;;;;;;;;;;21.60;45.59;101804.69;5019807;28;4799;-69
2023/03/03 12:41:36;;;;;;;;;;;;;;;21.58;45.69;101795.16;5008158;28;4959;-73
2023/03/03 12:44:22;;;;;;;;;;;;;;;21.59;45.70;101803.19;5009934;28;4816;-70
2023/03/03 12:46:51;;;;;;;;;;;;;;;21.70;45.81;101795.88;5013349;28;4621;-68
2023/03/03 12:49:17;;;;;;;;;;;;;;;21.75;45.83;101791.81;5011790;28;4187;-67
2023/03/03 12:51:54;;;;;;;;;;;;;;;21.89;45.82;101800.50;5017393;28;4143;-68
2023/03/03 12:54:39;;;;;;;;;;;;;;;21.92;45.55;101794.22;5013948;28;4190;-68
2023/03/03 12:57:09;;;;;;;;;;;;;;;20.55;42.72;101788.44;5016680;28;3987;-64
2023/03/03 12:59:50;;;;;;;;;;;;;;;20.24;42.62;101784.47;5012729;28;4207;-66
2023/03/03 13:02:36;;;;;;;;;;;;;;;20.84;44.38;101785.91;5019459;28;4184;-66